createdAt,value
2023-11-24T00:01:59.263Z,5.50
2023-11-24T00:04:31.961Z,5.63
2023-11-24T00:07:03.017Z,5.60
2023-11-24T00:09:33.667Z,5.58
2023-11-24T00:12:03.019Z,5.51
2023-11-24T00:14:34.010Z,5.39
2023-11-24T00:17:05.864Z,5.25
2023-11-24T00:19:36.380Z,5.13
2023-11-24T00:22:07.364Z,5.11
2023-11-24T00:24:40.273Z,5.09
2023-11-24T00:27:12.525Z,5.08
2023-11-24T00:29:42.784Z,5.08
2023-11-24T00:32:12.254Z,4.94
2023-11-24T00:34:44.401Z,4.82
2023-11-24T00:37:17.201Z,4.64
2023-11-24T00:39:51.543Z,4.52
2023-11-24T00:42:24.667Z,4.38
2023-11-24T00:44:58.369Z,4.29
2023-11-24T00:47:27.855Z,4.25
2023-11-24T00:49:58.345Z,4.13
2023-11-24T00:52:28.976Z,4.03
2023-11-24T00:55:01.602Z,4.12
2023-11-24T00:57:31.688Z,4.06
2023-11-24T01:00:04.599Z,4.15
2023-11-24T01:02:37.701Z,4.14
2023-11-24T01:05:10.979Z,4.12
2023-11-24T01:07:43.510Z,4.05
2023-11-24T01:10:14.351Z,4.15
2023-11-24T01:12:44.839Z,4.21
2023-11-24T01:15:16.256Z,4.13
2023-11-24T01:17:46.887Z,4.21
2023-11-24T01:20:17.859Z,4.27
2023-11-24T01:22:48.695Z,4.29
2023-11-24T01:25:21.056Z,4.33
2023-11-24T01:27:52.861Z,4.37
2023-11-24T01:30:24.607Z,4.40
2023-11-24T01:32:54.791Z,4.41
2023-11-24T01:35:27.938Z,4.46
2023-11-24T01:38:01.299Z,4.51
2023-11-24T01:40:30.608Z,4.39
2023-11-24T01:43:02.026Z,4.23
2023-11-24T01:45:32.842Z,4.01
2023-11-24T01:48:04.437Z,3.83
2023-11-24T01:50:37.965Z,3.69
2023-11-24T01:53:09.754Z,3.55
2023-11-24T01:55:39.225Z,3.39
2023-11-24T01:58:10.256Z,3.32
2023-11-24T02:00:40.295Z,3.27
2023-11-24T02:03:11.745Z,3.24
2023-11-24T02:05:43.247Z,3.22
2023-11-24T02:08:16.750Z,3.13
2023-11-24T02:10:46.830Z,3.10
2023-11-24T02:13:26.211Z,3.16
2023-11-24T02:15:58.164Z,3.29
2023-11-24T02:18:28.889Z,3.32
2023-11-24T02:20:59.111Z,3.27
2023-11-24T02:23:30.195Z,3.25
2023-11-24T02:26:01.434Z,3.32
2023-11-24T02:28:32.540Z,3.37
2023-11-24T02:31:05.080Z,3.49
2023-11-24T02:33:42.228Z,3.53
2023-11-24T02:36:22.124Z,3.63
2023-11-24T02:38:54.875Z,3.67
2023-11-24T02:41:26.299Z,3.71
2023-11-24T02:43:56.841Z,3.70
2023-11-24T02:46:26.480Z,3.68
2023-11-24T02:48:58.395Z,3.64
2023-11-24T02:51:29.328Z,3.63
2023-11-24T02:53:58.928Z,3.67
2023-11-24T02:56:31.382Z,3.92
2023-11-24T02:59:02.785Z,4.07
2023-11-24T03:01:35.069Z,4.15
2023-11-24T03:04:07.164Z,4.17
2023-11-24T03:06:44.669Z,4.09
2023-11-24T03:09:15.394Z,3.96
2023-11-24T03:11:46.176Z,3.94
2023-11-24T03:14:15.821Z,3.98
2023-11-24T03:16:48.146Z,3.78
2023-11-24T03:19:18.794Z,3.70
2023-11-24T03:21:51.668Z,3.63
2023-11-24T03:24:21.391Z,3.68
2023-11-24T03:26:51.970Z,3.73
2023-11-24T03:29:22.016Z,3.79
2023-11-24T03:31:53.245Z,3.89
2023-11-24T03:34:23.471Z,4.04
2023-11-24T03:36:55.990Z,4.04
2023-11-24T03:39:29.264Z,3.95
2023-11-24T03:42:00.912Z,3.90
2023-11-24T03:44:34.309Z,3.93
2023-11-24T03:47:04.876Z,3.92
2023-11-24T03:49:34.913Z,3.75
2023-11-24T03:52:09.664Z,3.62
2023-11-24T03:54:39.701Z,3.53
2023-11-24T03:57:12.970Z,3.51
2023-11-24T03:59:42.609Z,3.55
2023-11-24T04:02:12.455Z,3.50
2023-11-24T04:04:46.554Z,3.45
2023-11-24T04:07:18.256Z,3.39
2023-11-24T04:09:48.702Z,3.43
2023-11-24T04:12:21.562Z,3.41
2023-11-24T04:14:51.625Z,3.27
2023-11-24T04:17:22.797Z,3.11
2023-11-24T04:19:53.745Z,3.01
2023-11-24T04:22:24.140Z,2.97
2023-11-24T04:24:57.251Z,2.85
2023-11-24T04:27:26.283Z,2.82
2023-11-24T04:29:58.650Z,2.84
2023-11-24T04:32:30.758Z,2.88
2023-11-24T04:35:01.944Z,2.92
2023-11-24T04:37:33.284Z,2.91
2023-11-24T04:40:04.694Z,2.90
2023-11-24T04:42:36.774Z,2.96
2023-11-24T04:45:06.816Z,3.04
2023-11-24T04:47:41.626Z,3.05
2023-11-24T04:50:13.035Z,3.13
2023-11-24T04:52:43.992Z,3.27
2023-11-24T04:55:15.651Z,3.30
2023-11-24T04:57:51.096Z,3.29
2023-11-24T05:00:21.950Z,3.40
2023-11-24T05:02:53.041Z,3.43
2023-11-24T05:05:30.246Z,3.39
2023-11-24T05:08:00.602Z,3.50
2023-11-24T05:10:36.950Z,3.53
2023-11-24T05:13:08.844Z,3.47
2023-11-24T05:15:40.488Z,3.44
2023-11-24T05:18:10.726Z,3.32
2023-11-24T05:20:40.109Z,3.26
2023-11-24T05:23:15.704Z,3.16
2023-11-24T05:25:45.550Z,3.16
2023-11-24T05:28:17.978Z,3.28
2023-11-24T05:30:50.619Z,3.44
2023-11-24T05:33:20.060Z,3.37
2023-11-24T05:35:52.555Z,3.24
2023-11-24T05:38:24.971Z,3.16
2023-11-24T05:40:54.628Z,3.19
2023-11-24T05:43:25.721Z,3.18
2023-11-24T05:45:56.853Z,3.11
2023-11-24T05:48:30.347Z,3.03
2023-11-24T05:51:01.895Z,2.91
2023-11-24T05:53:31.903Z,2.88
2023-11-24T05:56:02.196Z,2.86
2023-11-24T05:58:33.339Z,2.83
2023-11-24T06:01:04.220Z,2.76
2023-11-24T06:03:36.686Z,2.72
2023-11-24T06:06:07.562Z,2.75
2023-11-24T06:08:38.215Z,2.67
2023-11-24T06:11:08.919Z,2.54
2023-11-24T06:13:40.376Z,2.48
2023-11-24T06:16:11.550Z,2.45
2023-11-24T06:18:43.712Z,2.51
2023-11-24T06:21:16.986Z,2.56
2023-11-24T06:23:47.339Z,2.75
2023-11-24T06:26:21.730Z,2.88
2023-11-24T06:28:52.787Z,3.02
2023-11-24T06:31:24.271Z,3.25
2023-11-24T06:33:55.044Z,3.34
2023-11-24T06:36:25.595Z,3.31
2023-11-24T06:38:56.679Z,3.46
2023-11-24T06:41:26.949Z,3.57
2023-11-24T06:43:59.445Z,3.53
2023-11-24T06:46:29.413Z,3.56
2023-11-24T06:49:01.300Z,3.62
2023-11-24T06:51:31.333Z,3.50
2023-11-24T06:54:01.178Z,3.65
2023-11-24T06:56:32.918Z,3.79
2023-11-24T06:59:07.152Z,3.72
2023-11-24T07:01:37.460Z,3.68
2023-11-24T07:04:09.320Z,3.57
2023-11-24T07:06:39.704Z,3.51
2023-11-24T07:09:13.130Z,3.66
2023-11-24T07:11:45.220Z,3.70
2023-11-24T07:14:16.971Z,3.68
2023-11-24T07:16:46.251Z,3.59
2023-11-24T07:19:15.251Z,3.59
2023-11-24T07:21:47.677Z,3.51
2023-11-24T07:24:16.924Z,3.52
2023-11-24T07:26:48.421Z,3.67
2023-11-24T07:29:18.076Z,3.76
2023-11-24T07:31:48.756Z,3.81
2023-11-24T07:34:19.480Z,3.77
2023-11-24T07:37:56.706Z,3.83
2023-11-24T07:40:46.491Z,4.21
2023-11-24T07:43:17.776Z,4.36
2023-11-24T07:45:51.902Z,4.24
2023-11-24T07:52:08.524Z,4.27
2023-11-24T07:54:45.289Z,4.19
2023-11-24T07:57:14.957Z,4.10
2023-11-24T07:59:45.601Z,4.01
2023-11-24T08:02:15.787Z,3.96
2023-11-24T08:04:46.415Z,3.88
2023-11-24T08:07:19.987Z,3.84
2023-11-24T08:09:51.697Z,3.83
2023-11-24T08:12:22.549Z,3.98
2023-11-24T08:14:52.316Z,3.97
2023-11-24T08:17:23.698Z,4.00
2023-11-24T08:19:53.633Z,4.06
2023-11-24T08:22:27.229Z,4.10
2023-11-24T08:24:57.757Z,4.45
2023-11-24T08:27:30.266Z,4.99
2023-11-24T08:30:05.144Z,5.13
2023-11-24T08:32:34.786Z,5.30
2023-11-24T08:35:05.837Z,5.25
2023-11-24T08:37:36.710Z,5.16
2023-11-24T08:40:12.616Z,5.64
2023-11-24T08:42:46.836Z,5.78
2023-11-24T08:45:18.940Z,5.80
2023-11-24T08:47:50.028Z,7.51
2023-11-24T08:50:22.128Z,9.23
2023-11-24T08:52:53.819Z,10.95
2023-11-24T08:55:26.050Z,11.45
2023-11-24T08:58:01.209Z,10.81
2023-11-24T09:00:31.376Z,12.51
2023-11-24T09:03:04.572Z,13.47
2023-11-24T09:05:43.559Z,13.08
2023-11-24T09:08:18.260Z,11.66
2023-11-24T09:10:52.854Z,11.65
2023-11-24T09:13:23.589Z,13.11
2023-11-24T09:15:53.553Z,13.51
2023-11-24T09:18:24.660Z,13.39
2023-11-24T09:20:57.206Z,13.12
2023-11-24T09:23:27.750Z,11.27
2023-11-24T09:26:02.485Z,9.83
2023-11-24T09:28:33.038Z,8.59
2023-11-24T09:31:10.086Z,7.96
2023-11-24T09:33:41.947Z,7.54
2023-11-24T09:36:13.503Z,6.91
2023-11-24T09:38:45.870Z,6.39
2023-11-24T09:41:19.308Z,6.18
2023-11-24T09:43:50.833Z,6.21
2023-11-24T09:46:20.568Z,6.22
2023-11-24T09:48:51.171Z,6.34
2023-11-24T09:51:24.469Z,6.24
2023-11-24T09:53:56.240Z,6.34
2023-11-24T09:56:27.383Z,6.75
2023-11-24T09:58:57.422Z,6.72
2023-11-24T10:01:32.589Z,6.50
2023-11-24T10:04:03.572Z,6.25
2023-11-24T10:06:41.433Z,6.15
2023-11-24T10:09:16.667Z,6.04
2023-11-24T10:11:50.357Z,5.75
2023-11-24T10:14:23.268Z,5.56
2023-11-24T10:16:55.468Z,5.49
2023-11-24T10:19:28.987Z,5.73
2023-11-24T10:21:59.215Z,5.73
2023-11-24T10:24:28.830Z,5.51
2023-11-24T10:27:19.420Z,5.53
2023-11-24T10:29:53.217Z,5.50
2023-11-24T10:32:24.889Z,5.50
2023-11-24T10:34:56.069Z,5.51
2023-11-24T10:37:26.592Z,5.40
2023-11-24T10:40:01.997Z,5.26
2023-11-24T10:42:36.408Z,5.23
2023-11-24T10:45:13.271Z,5.11
2023-11-24T10:48:23.703Z,5.91
2023-11-24T10:51:00.528Z,6.98
2023-11-24T10:53:40.322Z,7.57
2023-11-24T10:56:11.442Z,7.47
2023-11-24T10:58:43.316Z,7.69
2023-11-24T11:01:15.849Z,7.74
2023-11-24T11:04:00.624Z,7.19
2023-11-24T11:07:03.092Z,6.91
2023-11-24T11:09:44.286Z,6.77
2023-11-24T11:12:40.660Z,7.00
2023-11-24T11:15:12.333Z,7.33
2023-11-24T11:17:43.005Z,6.91
2023-11-24T11:20:16.712Z,6.61
2023-11-24T11:22:49.210Z,7.03
2023-11-24T11:25:24.651Z,7.31
2023-11-24T11:27:56.793Z,7.15
2023-11-24T11:30:29.693Z,7.12
2023-11-24T11:33:14.160Z,7.05
2023-11-24T11:35:44.488Z,6.98
2023-11-24T11:38:17.532Z,7.00
2023-11-24T11:40:53.351Z,7.12
2023-11-24T11:43:23.374Z,7.40
2023-11-24T11:45:58.598Z,7.32
2023-11-24T11:48:37.954Z,7.33
2023-11-24T11:51:17.195Z,7.01
2023-11-24T11:53:46.678Z,6.67
2023-11-24T11:56:17.477Z,6.47
2023-11-24T11:58:48.994Z,6.22
2023-11-24T12:01:18.756Z,6.02
2023-11-24T12:03:49.717Z,5.76
2023-11-24T12:06:21.897Z,5.56
2023-11-24T12:08:54.915Z,5.39
2023-11-24T12:11:29.246Z,5.40
2023-11-24T12:14:01.903Z,5.45
2023-11-24T12:16:35.158Z,5.85
2023-11-24T12:19:09.463Z,6.03
2023-11-24T12:21:40.989Z,6.29
2023-11-24T12:24:15.442Z,6.23
2023-11-24T12:26:47.316Z,6.16
2023-11-24T12:29:17.744Z,6.29
2023-11-24T12:31:47.918Z,6.98
2023-11-24T12:34:21.828Z,7.35
2023-11-24T12:36:56.141Z,7.96
2023-11-24T12:39:26.564Z,7.74
2023-11-24T12:41:56.555Z,7.98
2023-11-24T12:44:35.737Z,7.73
2023-11-24T12:47:12.498Z,7.77
2023-11-24T12:50:16.860Z,7.84
2023-11-24T12:52:47.064Z,8.33
2023-11-24T12:55:16.379Z,8.32
2023-11-24T12:57:49.290Z,7.92
2023-11-24T13:00:27.731Z,7.78
2023-11-24T13:02:58.484Z,7.46
2023-11-24T13:05:30.874Z,7.16
2023-11-24T13:08:00.474Z,6.94
2023-11-24T13:10:32.719Z,6.87
2023-11-24T13:13:03.303Z,6.74
2023-11-24T13:15:33.846Z,7.07
2023-11-24T13:18:03.239Z,7.19
2023-11-24T13:20:36.671Z,7.21
2023-11-24T13:23:07.675Z,7.19
2023-11-24T13:25:38.256Z,6.90
2023-11-24T13:28:08.914Z,6.92
2023-11-24T13:30:39.165Z,6.82
2023-11-24T13:33:10.003Z,6.56
2023-11-24T13:35:40.122Z,6.22
2023-11-24T13:38:11.179Z,5.85
2023-11-24T13:40:42.791Z,5.43
2023-11-24T13:43:14.928Z,5.09
2023-11-24T13:45:45.002Z,4.85
2023-11-24T13:48:30.571Z,4.86
2023-11-24T13:51:04.796Z,5.22
2023-11-24T13:53:37.864Z,5.45
2023-11-24T13:56:07.390Z,5.19
2023-11-24T13:58:40.104Z,4.80
2023-11-24T14:01:12.136Z,4.45
2023-11-24T14:03:48.251Z,4.19
2023-11-24T14:06:20.122Z,3.92
2023-11-24T14:08:51.391Z,3.71
2023-11-24T14:11:22.226Z,3.55
2023-11-24T14:13:53.674Z,3.38
2023-11-24T14:16:25.252Z,3.28
2023-11-24T14:18:56.005Z,3.17
2023-11-24T14:21:26.332Z,3.08
2023-11-24T14:23:57.590Z,2.98
2023-11-24T14:26:26.944Z,2.92
2023-11-24T14:28:56.673Z,2.85
2023-11-24T14:31:26.876Z,2.77
2023-11-24T14:34:01.594Z,2.66
2023-11-24T14:36:31.073Z,2.52
2023-11-24T14:39:01.208Z,2.41
2023-11-24T14:41:34.311Z,2.34
2023-11-24T14:44:06.978Z,2.28
2023-11-24T14:46:37.666Z,2.18
2023-11-24T14:49:07.662Z,2.12
2023-11-24T14:51:39.860Z,2.05
2023-11-24T14:54:10.524Z,1.98
2023-11-24T14:56:42.194Z,1.91
2023-11-24T14:59:12.462Z,1.84
2023-11-24T15:01:45.734Z,1.82
2023-11-24T15:04:19.179Z,1.87
2023-11-24T15:06:54.120Z,1.88
2023-11-24T15:09:26.663Z,1.82
2023-11-24T15:11:56.040Z,1.76
2023-11-24T15:14:34.346Z,1.70
2023-11-24T15:17:11.525Z,1.62
2023-11-24T15:19:42.588Z,1.53
2023-11-24T15:22:20.448Z,1.43
2023-11-24T15:24:56.033Z,1.39
2023-11-24T15:27:28.545Z,1.39
2023-11-24T15:29:58.199Z,1.41
2023-11-24T15:32:29.444Z,1.41
2023-11-24T15:35:00.503Z,1.46
2023-11-24T15:37:30.984Z,1.47
2023-11-24T15:40:02.916Z,1.47
2023-11-24T15:42:33.491Z,1.45
2023-11-24T15:45:04.293Z,1.43
2023-11-24T15:47:37.438Z,1.42
2023-11-24T15:50:12.988Z,1.43
2023-11-24T15:52:46.254Z,1.47
2023-11-24T15:55:17.832Z,1.49
2023-11-24T15:57:48.352Z,1.53
2023-11-24T16:00:28.104Z,1.56
2023-11-24T16:02:59.185Z,1.54
2023-11-24T16:05:34.003Z,1.52
2023-11-24T16:08:09.332Z,1.45
2023-11-24T16:10:46.935Z,1.38
2023-11-24T16:13:20.829Z,1.31
2023-11-24T16:15:52.151Z,1.21
2023-11-24T16:18:32.558Z,1.17
2023-11-24T16:21:06.478Z,1.10
2023-11-24T16:23:36.432Z,1.04
2023-11-24T16:26:11.630Z,0.97
2023-11-24T16:28:45.340Z,0.93
2023-11-24T16:31:17.536Z,0.96
2023-11-24T16:33:46.889Z,0.97
2023-11-24T16:36:20.407Z,0.98
2023-11-24T16:38:50.745Z,1.01
2023-11-24T16:41:21.257Z,1.00
2023-11-24T16:43:51.169Z,1.03
2023-11-24T16:46:26.647Z,1.03
2023-11-24T16:48:58.300Z,1.05
2023-11-24T16:51:30.109Z,1.12
2023-11-24T16:54:03.795Z,1.17
2023-11-24T16:56:38.252Z,1.22
2023-11-24T16:59:09.643Z,1.26
2023-11-24T17:01:41.232Z,1.31
2023-11-24T17:04:11.149Z,1.33
2023-11-24T17:06:43.039Z,1.33
2023-11-24T17:09:16.981Z,1.33
2023-11-24T17:11:48.592Z,1.37
2023-11-24T17:14:19.863Z,1.38
2023-11-24T17:16:49.663Z,1.37
2023-11-24T17:19:20.043Z,1.36
2023-11-24T17:21:51.010Z,1.32
2023-11-24T17:24:23.068Z,1.30
2023-11-24T17:26:53.667Z,1.26
2023-11-24T17:29:25.947Z,1.22
2023-11-24T17:31:58.124Z,1.19
2023-11-24T17:34:27.837Z,1.18
2023-11-24T17:36:59.042Z,1.17
2023-11-24T17:39:29.456Z,1.16
2023-11-24T17:42:00.068Z,1.16
2023-11-24T17:44:32.696Z,1.13
2023-11-24T17:47:06.056Z,1.12
2023-11-24T17:49:37.939Z,1.08
2023-11-24T17:52:09.091Z,1.01
2023-11-24T17:54:38.753Z,0.94
2023-11-24T17:57:10.119Z,0.89
2023-11-24T17:59:45.443Z,0.86
2023-11-24T18:02:18.538Z,0.86
2023-11-24T18:04:52.507Z,0.88
2023-11-24T18:07:24.535Z,0.90
2023-11-24T18:09:55.496Z,0.92
2023-11-24T18:12:28.204Z,0.93
2023-11-24T18:14:59.444Z,0.94
2023-11-24T18:17:35.753Z,0.94
2023-11-24T18:20:08.000Z,0.92
2023-11-24T18:22:49.236Z,0.88
2023-11-24T18:25:40.169Z,0.86
2023-11-24T18:44:58.534Z,0.84
2023-11-24T18:47:35.631Z,0.85
2023-11-24T18:50:09.341Z,0.86
2023-11-24T18:52:39.100Z,0.87
2023-11-24T18:55:10.985Z,0.87
2023-11-24T18:57:48.658Z,0.88
2023-11-24T19:00:21.014Z,0.88
2023-11-24T19:02:54.025Z,0.89
2023-11-24T19:05:30.912Z,0.89
2023-11-24T19:08:06.121Z,0.90
2023-11-24T19:10:37.982Z,0.91
2023-11-24T19:13:09.899Z,0.93
2023-11-24T19:15:42.757Z,0.96
2023-11-24T19:18:16.477Z,0.94
2023-11-24T19:20:48.243Z,0.91
2023-11-24T19:23:18.780Z,0.91
2023-11-24T19:25:49.984Z,0.91
2023-11-24T19:28:22.621Z,0.89
2023-11-24T19:30:53.755Z,0.87
2023-11-24T19:33:24.676Z,0.83
2023-11-24T19:36:07.954Z,0.82
2023-11-24T19:38:41.712Z,0.82
2023-11-24T19:41:16.355Z,0.82
2023-11-24T19:43:50.708Z,0.81
2023-11-24T19:46:25.876Z,0.80
2023-11-24T19:48:58.947Z,0.81
2023-11-24T19:51:34.823Z,0.81
2023-11-24T19:54:05.961Z,0.81
2023-11-24T19:56:38.312Z,0.82
2023-11-24T19:59:12.995Z,0.84
2023-11-24T20:01:57.694Z,0.83
2023-11-24T20:04:32.116Z,0.84
2023-11-24T20:07:06.345Z,0.83
2023-11-24T20:09:56.827Z,0.82
2023-11-24T20:12:32.629Z,0.83
2023-11-24T20:15:05.952Z,0.82
2023-11-24T20:17:38.773Z,0.84
2023-11-24T20:20:13.481Z,0.84
2023-11-24T20:22:44.843Z,0.85
2023-11-24T20:25:16.905Z,0.86
2023-11-24T20:27:53.016Z,0.86
2023-11-24T20:30:28.672Z,0.87
2023-11-24T20:33:00.325Z,0.88
2023-11-24T20:35:33.391Z,0.86
2023-11-24T20:38:05.177Z,0.85
2023-11-24T20:40:36.615Z,0.82
2023-11-24T20:43:09.280Z,0.78
2023-11-24T20:45:48.612Z,0.75
2023-11-24T20:48:29.896Z,0.74
2023-11-24T20:51:05.097Z,0.72
2023-11-24T20:53:38.039Z,0.73
2023-11-24T20:56:26.264Z,0.74
2023-11-24T20:59:10.265Z,0.76
2023-11-24T21:01:46.180Z,0.76
2023-11-24T21:04:23.808Z,0.76
2023-11-24T21:07:03.152Z,0.75
2023-11-24T21:09:36.340Z,0.75
2023-11-24T21:12:12.115Z,0.76
2023-11-24T21:14:45.012Z,0.78
2023-11-24T21:17:15.209Z,0.78
2023-11-24T21:19:46.234Z,0.80
2023-11-24T21:22:18.483Z,0.81
2023-11-24T21:24:53.160Z,0.82
2023-11-24T21:27:23.475Z,0.82
2023-11-24T21:29:54.687Z,0.83
2023-11-24T21:32:25.262Z,0.83
2023-11-24T21:34:56.219Z,0.83
2023-11-24T21:37:30.035Z,0.82
2023-11-24T21:40:03.510Z,0.81
2023-11-24T21:42:36.050Z,0.81
2023-11-24T21:45:09.092Z,0.80
2023-11-24T21:47:40.750Z,0.78
2023-11-24T21:50:14.924Z,0.78
2023-11-24T21:52:44.479Z,0.78
2023-11-24T21:55:15.035Z,0.80
2023-11-24T21:57:48.535Z,0.84
2023-11-24T22:00:19.513Z,0.86
2023-11-24T22:02:49.862Z,0.86
2023-11-24T22:05:20.632Z,0.84
2023-11-24T22:07:50.846Z,0.85
2023-11-24T22:10:21.531Z,0.86
2023-11-24T22:12:54.462Z,0.87
2023-11-24T22:15:24.036Z,0.88
2023-11-24T22:17:55.811Z,0.88
2023-11-24T22:20:29.090Z,0.88
2023-11-24T22:22:58.517Z,0.90
2023-11-24T22:25:29.289Z,0.88
2023-11-24T22:27:59.479Z,0.86
2023-11-24T22:30:29.412Z,0.86
2023-11-24T22:33:01.106Z,0.88
2023-11-24T22:35:33.699Z,0.86
2023-11-24T22:38:05.940Z,0.85
2023-11-24T22:40:38.172Z,0.88
2023-11-24T22:43:10.751Z,0.88
2023-11-24T22:45:40.329Z,0.89
2023-11-24T22:48:14.042Z,0.88
2023-11-24T22:50:45.162Z,0.87
2023-11-24T22:53:15.895Z,0.87
2023-11-24T22:55:49.150Z,0.86
2023-11-24T22:58:20.046Z,0.85
2023-11-24T23:00:52.069Z,0.88
2023-11-24T23:03:23.482Z,0.89
2023-11-24T23:05:55.547Z,0.92
2023-11-24T23:08:28.111Z,0.93
2023-11-24T23:11:01.048Z,0.94
2023-11-24T23:13:32.624Z,0.96
2023-11-24T23:16:05.331Z,0.96
2023-11-24T23:18:36.060Z,0.96
2023-11-24T23:21:16.391Z,0.97
2023-11-24T23:23:49.264Z,0.98
2023-11-24T23:26:22.972Z,0.95
2023-11-24T23:28:54.561Z,0.92
2023-11-24T23:31:28.779Z,0.89
2023-11-24T23:33:59.296Z,0.87
2023-11-24T23:36:30.089Z,0.89
2023-11-24T23:39:01.982Z,0.89
2023-11-24T23:41:33.111Z,0.90
2023-11-24T23:44:05.777Z,0.91
2023-11-24T23:46:36.829Z,0.92
2023-11-24T23:49:10.090Z,0.92
2023-11-24T23:51:41.803Z,0.94
2023-11-24T23:54:13.852Z,0.91
2023-11-24T23:56:46.745Z,0.93
2023-11-24T23:59:19.303Z,0.91
